sensor_id;sensor_type;location;lat;lon;timestamp;P1;durP1;ratioP1;P2;durP2;ratioP2
21543;SDS011;10933;50.754;11.508;2022-10-26T00:00:42;27.40;;;9.97;;
21543;SDS011;10933;50.754;11.508;2022-10-26T00:03:08;63.63;;;10.83;;
21543;SDS011;10933;50.754;11.508;2022-10-26T00:05:35;100.07;;;11.23;;
21543;SDS011;10933;50.754;11.508;2022-10-26T00:08:01;98.13;;;11.27;;
21543;SDS011;10933;50.754;11.508;2022-10-26T00:10:27;36.40;;;9.10;;
21543;SDS011;10933;50.754;11.508;2022-10-26T00:12:54;130.67;;;11.67;;
21543;SDS011;10933;50.754;11.508;2022-10-26T00:15:20;88.43;;;11.50;;
21543;SDS011;10933;50.754;11.508;2022-10-26T00:17:46;84.27;;;11.57;;
21543;SDS011;10933;50.754;11.508;2022-10-26T00:20:13;60.53;;;11.57;;
21543;SDS011;10933;50.754;11.508;2022-10-26T00:22:39;227.93;;;13.07;;
21543;SDS011;10933;50.754;11.508;2022-10-26T00:25:06;114.67;;;11.53;;
21543;SDS011;10933;50.754;11.508;2022-10-26T00:27:32;117.50;;;10.57;;
21543;SDS011;10933;50.754;11.508;2022-10-26T00:29:59;49.20;;;10.10;;
21543;SDS011;10933;50.754;11.508;2022-10-26T00:32:26;75.73;;;10.60;;
21543;SDS011;10933;50.754;11.508;2022-10-26T00:34:52;239.93;;;13.40;;
21543;SDS011;10933;50.754;11.508;2022-10-26T00:37:19;83.30;;;9.73;;
21543;SDS011;10933;50.754;11.508;2022-10-26T00:39:45;75.27;;;14.27;;
21543;SDS011;10933;50.754;11.508;2022-10-26T00:42:11;83.97;;;10.80;;
21543;SDS011;10933;50.754;11.508;2022-10-26T00:47:11;96.93;;;11.80;;
21543;SDS011;10933;50.754;11.508;2022-10-26T00:49:58;74.77;;;12.80;;
21543;SDS011;10933;50.754;11.508;2022-10-26T00:52:29;82.77;;;12.07;;
21543;SDS011;10933;50.754;11.508;2022-10-26T00:54:55;108.17;;;10.93;;
21543;SDS011;10933;50.754;11.508;2022-10-26T00:57:22;31.63;;;10.03;;
21543;SDS011;10933;50.754;11.508;2022-10-26T00:59:49;112.00;;;12.73;;
21543;SDS011;10933;50.754;11.508;2022-10-26T01:02:18;212.70;;;14.67;;
21543;SDS011;10933;50.754;11.508;2022-10-26T01:04:45;90.03;;;11.43;;
21543;SDS011;10933;50.754;11.508;2022-10-26T01:07:12;23.20;;;10.37;;
21543;SDS011;10933;50.754;11.508;2022-10-26T01:09:38;90.87;;;9.27;;
21543;SDS011;10933;50.754;11.508;2022-10-26T01:12:04;14.60;;;7.10;;
21543;SDS011;10933;50.754;11.508;2022-10-26T01:17:54;36.03;;;6.60;;
21543;SDS011;10933;50.754;11.508;2022-10-26T01:21:05;37.93;;;7.23;;
21543;SDS011;10933;50.754;11.508;2022-10-26T01:26:58;107.50;;;8.73;;
21543;SDS011;10933;50.754;11.508;2022-10-26T01:43:43;38.10;;;9.70;;
21543;SDS011;10933;50.754;11.508;2022-10-26T01:46:17;42.93;;;11.10;;
21543;SDS011;10933;50.754;11.508;2022-10-26T01:48:45;62.40;;;13.90;;
21543;SDS011;10933;50.754;11.508;2022-10-26T01:51:15;48.77;;;11.67;;
21543;SDS011;10933;50.754;11.508;2022-10-26T01:53:44;80.83;;;13.17;;
21543;SDS011;10933;50.754;11.508;2022-10-26T01:56:23;67.87;;;15.40;;
21543;SDS011;10933;50.754;11.508;2022-10-26T02:09:28;89.47;;;10.43;;
21543;SDS011;10933;50.754;11.508;2022-10-26T02:12:05;53.00;;;9.63;;
21543;SDS011;10933;50.754;11.508;2022-10-26T02:14:48;30.07;;;9.73;;
21543;SDS011;10933;50.754;11.508;2022-10-26T02:22:23;85.07;;;11.47;;
21543;SDS011;10933;50.754;11.508;2022-10-26T02:24:56;73.67;;;10.60;;
21543;SDS011;10933;50.754;11.508;2022-10-26T02:27:30;47.63;;;9.73;;
21543;SDS011;10933;50.754;11.508;2022-10-26T02:30:00;32.67;;;10.03;;
21543;SDS011;10933;50.754;11.508;2022-10-26T02:32:29;95.03;;;12.37;;
21543;SDS011;10933;50.754;11.508;2022-10-26T02:35:00;98.70;;;11.53;;
21543;SDS011;10933;50.754;11.508;2022-10-26T02:37:27;101.10;;;11.30;;
21543;SDS011;10933;50.754;11.508;2022-10-26T02:39:55;81.67;;;10.43;;
21543;SDS011;10933;50.754;11.508;2022-10-26T02:42:24;94.37;;;11.97;;
21543;SDS011;10933;50.754;11.508;2022-10-26T02:44:56;78.40;;;10.03;;
21543;SDS011;10933;50.754;11.508;2022-10-26T02:47:28;102.77;;;10.90;;
21543;SDS011;10933;50.754;11.508;2022-10-26T02:49:55;72.43;;;11.53;;
21543;SDS011;10933;50.754;11.508;2022-10-26T02:52:22;119.80;;;12.63;;
21543;SDS011;10933;50.754;11.508;2022-10-26T02:55:11;47.03;;;9.10;;
21543;SDS011;10933;50.754;11.508;2022-10-26T02:57:53;50.23;;;8.83;;
21543;SDS011;10933;50.754;11.508;2022-10-26T03:00:23;53.27;;;11.03;;
21543;SDS011;10933;50.754;11.508;2022-10-26T03:02:53;84.87;;;14.27;;
21543;SDS011;10933;50.754;11.508;2022-10-26T03:05:23;113.63;;;11.60;;
21543;SDS011;10933;50.754;11.508;2022-10-26T03:07:51;125.07;;;17.70;;
21543;SDS011;10933;50.754;11.508;2022-10-26T03:10:18;138.40;;;15.53;;
21543;SDS011;10933;50.754;11.508;2022-10-26T03:12:45;139.80;;;23.73;;
21543;SDS011;10933;50.754;11.508;2022-10-26T03:15:12;126.63;;;17.83;;
21543;SDS011;10933;50.754;11.508;2022-10-26T03:17:39;159.67;;;22.40;;
21543;SDS011;10933;50.754;11.508;2022-10-26T03:20:06;130.67;;;33.93;;
21543;SDS011;10933;50.754;11.508;2022-10-26T03:22:33;245.73;;;17.30;;
21543;SDS011;10933;50.754;11.508;2022-10-26T03:24:59;436.93;;;22.37;;
21543;SDS011;10933;50.754;11.508;2022-10-26T03:27:26;114.43;;;16.33;;
21543;SDS011;10933;50.754;11.508;2022-10-26T03:29:52;117.43;;;13.40;;
21543;SDS011;10933;50.754;11.508;2022-10-26T03:32:18;126.77;;;26.97;;
21543;SDS011;10933;50.754;11.508;2022-10-26T03:34:44;172.60;;;15.53;;
21543;SDS011;10933;50.754;11.508;2022-10-26T03:37:10;84.37;;;12.53;;
21543;SDS011;10933;50.754;11.508;2022-10-26T03:39:37;84.80;;;10.10;;
21543;SDS011;10933;50.754;11.508;2022-10-26T03:42:03;173.17;;;12.73;;
21543;SDS011;10933;50.754;11.508;2022-10-26T03:44:29;99.97;;;11.40;;
21543;SDS011;10933;50.754;11.508;2022-10-26T03:46:55;50.53;;;9.50;;
21543;SDS011;10933;50.754;11.508;2022-10-26T03:49:21;111.10;;;10.17;;
21543;SDS011;10933;50.754;11.508;2022-10-26T03:51:47;87.07;;;11.63;;
21543;SDS011;10933;50.754;11.508;2022-10-26T03:54:14;65.43;;;9.73;;
21543;SDS011;10933;50.754;11.508;2022-10-26T03:56:40;117.47;;;11.10;;
21543;SDS011;10933;50.754;11.508;2022-10-26T03:59:06;90.07;;;9.77;;
21543;SDS011;10933;50.754;11.508;2022-10-26T04:01:32;82.53;;;10.30;;
21543;SDS011;10933;50.754;11.508;2022-10-26T04:03:58;104.30;;;11.73;;
21543;SDS011;10933;50.754;11.508;2022-10-26T04:06:24;34.87;;;11.60;;
21543;SDS011;10933;50.754;11.508;2022-10-26T04:08:50;82.80;;;10.57;;
21543;SDS011;10933;50.754;11.508;2022-10-26T04:11:22;59.13;;;9.43;;
21543;SDS011;10933;50.754;11.508;2022-10-26T04:13:48;62.17;;;10.20;;
21543;SDS011;10933;50.754;11.508;2022-10-26T04:16:14;103.07;;;11.10;;
21543;SDS011;10933;50.754;11.508;2022-10-26T04:18:40;45.03;;;9.33;;
21543;SDS011;10933;50.754;11.508;2022-10-26T04:21:06;75.53;;;9.87;;
21543;SDS011;10933;50.754;11.508;2022-10-26T04:23:32;72.30;;;11.30;;
21543;SDS011;10933;50.754;11.508;2022-10-26T04:25:58;28.67;;;10.33;;
21543;SDS011;10933;50.754;11.508;2022-10-26T04:28:24;30.47;;;10.20;;
21543;SDS011;10933;50.754;11.508;2022-10-26T04:30:51;31.40;;;9.67;;
21543;SDS011;10933;50.754;11.508;2022-10-26T04:33:17;37.67;;;9.07;;
21543;SDS011;10933;50.754;11.508;2022-10-26T04:35:43;28.10;;;9.30;;
21543;SDS011;10933;50.754;11.508;2022-10-26T04:38:10;25.03;;;8.83;;
21543;SDS011;10933;50.754;11.508;2022-10-26T04:40:36;56.37;;;9.97;;
21543;SDS011;10933;50.754;11.508;2022-10-26T04:43:02;18.73;;;9.10;;
21543;SDS011;10933;50.754;11.508;2022-10-26T04:45:28;27.17;;;9.77;;
21543;SDS011;10933;50.754;11.508;2022-10-26T04:48:05;14.53;;;9.50;;
21543;SDS011;10933;50.754;11.508;2022-10-26T04:50:34;26.00;;;10.30;;
21543;SDS011;10933;50.754;11.508;2022-10-26T04:53:01;13.27;;;9.90;;
21543;SDS011;10933;50.754;11.508;2022-10-26T04:55:30;26.00;;;9.63;;
21543;SDS011;10933;50.754;11.508;2022-10-26T04:57:56;12.90;;;9.00;;
21543;SDS011;10933;50.754;11.508;2022-10-26T05:00:23;39.73;;;9.67;;
21543;SDS011;10933;50.754;11.508;2022-10-26T05:02:49;28.43;;;9.33;;
21543;SDS011;10933;50.754;11.508;2022-10-26T05:05:15;20.60;;;9.50;;
21543;SDS011;10933;50.754;11.508;2022-10-26T05:07:41;12.10;;;9.73;;
21543;SDS011;10933;50.754;11.508;2022-10-26T05:10:08;25.03;;;9.63;;
21543;SDS011;10933;50.754;11.508;2022-10-26T05:12:34;41.23;;;10.20;;
21543;SDS011;10933;50.754;11.508;2022-10-26T05:15:00;23.47;;;10.40;;
21543;SDS011;10933;50.754;11.508;2022-10-26T05:17:27;19.60;;;9.73;;
21543;SDS011;10933;50.754;11.508;2022-10-26T05:19:53;32.23;;;9.60;;
21543;SDS011;10933;50.754;11.508;2022-10-26T05:22:21;14.27;;;9.10;;
21543;SDS011;10933;50.754;11.508;2022-10-26T05:24:47;37.80;;;9.83;;
21543;SDS011;10933;50.754;11.508;2022-10-26T05:27:13;23.60;;;10.67;;
21543;SDS011;10933;50.754;11.508;2022-10-26T05:29:39;15.47;;;10.67;;
21543;SDS011;10933;50.754;11.508;2022-10-26T05:32:05;40.33;;;9.93;;
21543;SDS011;10933;50.754;11.508;2022-10-26T05:34:31;13.20;;;9.27;;
21543;SDS011;10933;50.754;11.508;2022-10-26T05:36:57;10.37;;;9.40;;
21543;SDS011;10933;50.754;11.508;2022-10-26T05:39:23;26.10;;;10.37;;
21543;SDS011;10933;50.754;11.508;2022-10-26T05:41:49;11.73;;;10.27;;
21543;SDS011;10933;50.754;11.508;2022-10-26T05:44:17;12.20;;;10.23;;
21543;SDS011;10933;50.754;11.508;2022-10-26T05:46:45;26.30;;;10.80;;
21543;SDS011;10933;50.754;11.508;2022-10-26T05:49:11;10.33;;;9.50;;
21543;SDS011;10933;50.754;11.508;2022-10-26T05:51:37;11.47;;;9.37;;
21543;SDS011;10933;50.754;11.508;2022-10-26T05:54:03;9.73;;;9.03;;
21543;SDS011;10933;50.754;11.508;2022-10-26T05:56:33;9.83;;;9.20;;
21543;SDS011;10933;50.754;11.508;2022-10-26T05:59:01;11.13;;;9.37;;
21543;SDS011;10933;50.754;11.508;2022-10-26T06:01:34;10.27;;;9.33;;
21543;SDS011;10933;50.754;11.508;2022-10-26T06:06:45;9.97;;;9.17;;
21543;SDS011;10933;50.754;11.508;2022-10-26T06:09:16;9.07;;;8.43;;
21543;SDS011;10933;50.754;11.508;2022-10-26T06:11:43;12.27;;;8.60;;
21543;SDS011;10933;50.754;11.508;2022-10-26T06:14:09;8.10;;;7.43;;
21543;SDS011;10933;50.754;11.508;2022-10-26T06:16:39;8.87;;;7.90;;
21543;SDS011;10933;50.754;11.508;2022-10-26T06:27:11;9.03;;;8.53;;
21543;SDS011;10933;50.754;11.508;2022-10-26T06:30:00;12.50;;;9.17;;
21543;SDS011;10933;50.754;11.508;2022-10-26T06:32:31;9.27;;;8.70;;
21543;SDS011;10933;50.754;11.508;2022-10-26T06:35:02;9.20;;;8.50;;
21543;SDS011;10933;50.754;11.508;2022-10-26T06:37:54;8.40;;;7.90;;
21543;SDS011;10933;50.754;11.508;2022-10-26T06:40:24;10.13;;;9.53;;
21543;SDS011;10933;50.754;11.508;2022-10-26T06:42:51;11.83;;;10.10;;
21543;SDS011;10933;50.754;11.508;2022-10-26T06:45:18;10.47;;;9.77;;
21543;SDS011;10933;50.754;11.508;2022-10-26T06:47:48;10.43;;;9.53;;
21543;SDS011;10933;50.754;11.508;2022-10-26T06:50:33;9.67;;;8.97;;
21543;SDS011;10933;50.754;11.508;2022-10-26T06:55:42;9.23;;;8.37;;
21543;SDS011;10933;50.754;11.508;2022-10-26T06:58:12;11.30;;;8.83;;
21543;SDS011;10933;50.754;11.508;2022-10-26T07:00:42;9.40;;;8.60;;
21543;SDS011;10933;50.754;11.508;2022-10-26T07:03:10;9.80;;;9.10;;
21543;SDS011;10933;50.754;11.508;2022-10-26T07:05:36;9.90;;;9.27;;
21543;SDS011;10933;50.754;11.508;2022-10-26T07:08:03;10.27;;;9.37;;
21543;SDS011;10933;50.754;11.508;2022-10-26T07:10:30;13.07;;;12.00;;
21543;SDS011;10933;50.754;11.508;2022-10-26T07:12:56;11.50;;;10.80;;
21543;SDS011;10933;50.754;11.508;2022-10-26T07:15:22;11.43;;;10.73;;
21543;SDS011;10933;50.754;11.508;2022-10-26T07:17:48;11.67;;;10.77;;
21543;SDS011;10933;50.754;11.508;2022-10-26T07:20:15;11.43;;;10.60;;
21543;SDS011;10933;50.754;11.508;2022-10-26T07:22:43;10.50;;;9.73;;
21543;SDS011;10933;50.754;11.508;2022-10-26T07:25:16;11.73;;;9.53;;
21543;SDS011;10933;50.754;11.508;2022-10-26T07:27:43;12.13;;;11.33;;
21543;SDS011;10933;50.754;11.508;2022-10-26T07:30:09;10.00;;;8.70;;
21543;SDS011;10933;50.754;11.508;2022-10-26T07:32:36;10.10;;;8.63;;
21543;SDS011;10933;50.754;11.508;2022-10-26T07:35:02;8.13;;;7.63;;
21543;SDS011;10933;50.754;11.508;2022-10-26T07:37:28;9.07;;;8.13;;
21543;SDS011;10933;50.754;11.508;2022-10-26T07:39:55;8.53;;;8.03;;
21543;SDS011;10933;50.754;11.508;2022-10-26T07:42:21;22.77;;;8.37;;
21543;SDS011;10933;50.754;11.508;2022-10-26T07:44:47;10.53;;;9.53;;
21543;SDS011;10933;50.754;11.508;2022-10-26T07:47:13;14.37;;;11.83;;
21543;SDS011;10933;50.754;11.508;2022-10-26T07:49:40;10.17;;;9.23;;
21543;SDS011;10933;50.754;11.508;2022-10-26T07:52:06;13.07;;;12.20;;
21543;SDS011;10933;50.754;11.508;2022-10-26T07:54:33;12.43;;;11.30;;
21543;SDS011;10933;50.754;11.508;2022-10-26T07:56:59;11.27;;;10.37;;
21543;SDS011;10933;50.754;11.508;2022-10-26T07:59:25;12.63;;;11.77;;
21543;SDS011;10933;50.754;11.508;2022-10-26T08:01:51;11.13;;;10.40;;
21543;SDS011;10933;50.754;11.508;2022-10-26T08:04:18;13.47;;;12.13;;
21543;SDS011;10933;50.754;11.508;2022-10-26T08:06:44;10.13;;;9.13;;
21543;SDS011;10933;50.754;11.508;2022-10-26T08:09:11;16.50;;;15.60;;
21543;SDS011;10933;50.754;11.508;2022-10-26T08:11:37;7.73;;;7.23;;
21543;SDS011;10933;50.754;11.508;2022-10-26T08:14:04;7.67;;;6.87;;
21543;SDS011;10933;50.754;11.508;2022-10-26T08:16:30;14.03;;;12.87;;
21543;SDS011;10933;50.754;11.508;2022-10-26T08:18:58;10.63;;;9.93;;
21543;SDS011;10933;50.754;11.508;2022-10-26T08:21:24;10.03;;;9.30;;
21543;SDS011;10933;50.754;11.508;2022-10-26T08:23:50;6.97;;;6.37;;
21543;SDS011;10933;50.754;11.508;2022-10-26T08:26:18;6.73;;;6.13;;
21543;SDS011;10933;50.754;11.508;2022-10-26T08:28:47;6.60;;;6.20;;
21543;SDS011;10933;50.754;11.508;2022-10-26T08:31:14;7.53;;;6.90;;
21543;SDS011;10933;50.754;11.508;2022-10-26T08:33:40;5.97;;;5.57;;
21543;SDS011;10933;50.754;11.508;2022-10-26T08:36:06;6.50;;;5.90;;
21543;SDS011;10933;50.754;11.508;2022-10-26T08:38:32;8.27;;;7.10;;
21543;SDS011;10933;50.754;11.508;2022-10-26T08:41:00;6.57;;;6.10;;
21543;SDS011;10933;50.754;11.508;2022-10-26T08:46:07;7.90;;;7.40;;
21543;SDS011;10933;50.754;11.508;2022-10-26T08:48:50;10.20;;;9.30;;
21543;SDS011;10933;50.754;11.508;2022-10-26T08:51:24;17.47;;;16.00;;
21543;SDS011;10933;50.754;11.508;2022-10-26T08:54:00;12.27;;;11.57;;
21543;SDS011;10933;50.754;11.508;2022-10-26T08:56:39;8.47;;;7.83;;
21543;SDS011;10933;50.754;11.508;2022-10-26T09:02:01;8.90;;;8.40;;
21543;SDS011;10933;50.754;11.508;2022-10-26T09:04:28;9.53;;;8.60;;
21543;SDS011;10933;50.754;11.508;2022-10-26T09:12:54;7.83;;;7.33;;
21543;SDS011;10933;50.754;11.508;2022-10-26T09:15:36;7.93;;;7.43;;
21543;SDS011;10933;50.754;11.508;2022-10-26T09:20:45;9.23;;;8.63;;
21543;SDS011;10933;50.754;11.508;2022-10-26T09:26:26;7.23;;;6.73;;
21543;SDS011;10933;50.754;11.508;2022-10-26T09:28:54;7.23;;;6.83;;
21543;SDS011;10933;50.754;11.508;2022-10-26T09:31:25;7.30;;;6.80;;
21543;SDS011;10933;50.754;11.508;2022-10-26T09:33:51;7.37;;;6.90;;
21543;SDS011;10933;50.754;11.508;2022-10-26T09:36:19;8.00;;;6.40;;
21543;SDS011;10933;50.754;11.508;2022-10-26T09:38:51;6.63;;;6.00;;
21543;SDS011;10933;50.754;11.508;2022-10-26T09:41:45;6.13;;;5.73;;
21543;SDS011;10933;50.754;11.508;2022-10-26T09:44:26;7.07;;;6.57;;
21543;SDS011;10933;50.754;11.508;2022-10-26T09:47:05;6.37;;;5.97;;
21543;SDS011;10933;50.754;11.508;2022-10-26T09:49:54;6.30;;;5.90;;
21543;SDS011;10933;50.754;11.508;2022-10-26T09:52:25;6.43;;;5.93;;
21543;SDS011;10933;50.754;11.508;2022-10-26T09:54:51;7.30;;;6.60;;
21543;SDS011;10933;50.754;11.508;2022-10-26T09:57:17;9.83;;;6.40;;
21543;SDS011;10933;50.754;11.508;2022-10-26T09:59:45;6.40;;;5.83;;
21543;SDS011;10933;50.754;11.508;2022-10-26T10:10:59;9.80;;;6.73;;
21543;SDS011;10933;50.754;11.508;2022-10-26T10:13:40;7.37;;;6.50;;
21543;SDS011;10933;50.754;11.508;2022-10-26T10:18:54;9.77;;;6.20;;
21543;SDS011;10933;50.754;11.508;2022-10-26T10:21:43;6.83;;;6.33;;
21543;SDS011;10933;50.754;11.508;2022-10-26T10:24:22;6.47;;;5.77;;
21543;SDS011;10933;50.754;11.508;2022-10-26T10:26:55;6.37;;;5.77;;
21543;SDS011;10933;50.754;11.508;2022-10-26T10:29:25;6.03;;;5.63;;
21543;SDS011;10933;50.754;11.508;2022-10-26T10:31:56;7.43;;;6.73;;
21543;SDS011;10933;50.754;11.508;2022-10-26T10:34:23;9.40;;;7.80;;
21543;SDS011;10933;50.754;11.508;2022-10-26T10:36:50;9.23;;;6.97;;
21543;SDS011;10933;50.754;11.508;2022-10-26T10:41:59;7.60;;;6.90;;
21543;SDS011;10933;50.754;11.508;2022-10-26T10:44:27;6.20;;;5.70;;
21543;SDS011;10933;50.754;11.508;2022-10-26T10:47:02;6.70;;;6.30;;
21543;SDS011;10933;50.754;11.508;2022-10-26T10:49:29;9.43;;;6.40;;
21543;SDS011;10933;50.754;11.508;2022-10-26T10:51:56;6.27;;;5.77;;
21543;SDS011;10933;50.754;11.508;2022-10-26T10:54:26;8.63;;;5.93;;
21543;SDS011;10933;50.754;11.508;2022-10-26T11:00:09;13.43;;;12.63;;
21543;SDS011;10933;50.754;11.508;2022-10-26T11:08:42;13.37;;;12.17;;
21543;SDS011;10933;50.754;11.508;2022-10-26T11:14:05;11.30;;;10.40;;
21543;SDS011;10933;50.754;11.508;2022-10-26T11:16:50;9.57;;;9.07;;
21543;SDS011;10933;50.754;11.508;2022-10-26T11:19:24;11.77;;;10.20;;
21543;SDS011;10933;50.754;11.508;2022-10-26T11:22:05;8.77;;;7.70;;
21543;SDS011;10933;50.754;11.508;2022-10-26T11:24:44;6.93;;;5.75;;
21543;SDS011;10933;50.754;11.508;2022-10-26T11:27:20;6.68;;;6.28;;
21543;SDS011;10933;50.754;11.508;2022-10-26T11:35:28;7.07;;;6.68;;
21543;SDS011;10933;50.754;11.508;2022-10-26T11:38:17;9.27;;;8.68;;
21543;SDS011;10933;50.754;11.508;2022-10-26T11:51:58;7.95;;;7.43;;
21543;SDS011;10933;50.754;11.508;2022-10-26T11:57:20;9.02;;;8.13;;
21543;SDS011;10933;50.754;11.508;2022-10-26T11:59:55;7.80;;;7.20;;
21543;SDS011;10933;50.754;11.508;2022-10-26T12:02:26;8.63;;;7.93;;
21543;SDS011;10933;50.754;11.508;2022-10-26T12:05:00;8.80;;;8.23;;
21543;SDS011;10933;50.754;11.508;2022-10-26T12:07:42;8.30;;;7.78;;
21543;SDS011;10933;50.754;11.508;2022-10-26T12:10:22;14.70;;;7.25;;
21543;SDS011;10933;50.754;11.508;2022-10-26T12:18:37;18.02;;;16.50;;
21543;SDS011;10933;50.754;11.508;2022-10-26T12:21:07;17.15;;;15.63;;
21543;SDS011;10933;50.754;11.508;2022-10-26T12:23:37;14.10;;;13.20;;
21543;SDS011;10933;50.754;11.508;2022-10-26T12:34:21;6.93;;;6.53;;
21543;SDS011;10933;50.754;11.508;2022-10-26T12:39:31;7.72;;;7.10;;
21543;SDS011;10933;50.754;11.508;2022-10-26T12:44:37;7.22;;;6.72;;
21543;SDS011;10933;50.754;11.508;2022-10-26T12:47:08;8.02;;;7.22;;
21543;SDS011;10933;50.754;11.508;2022-10-26T12:52:47;6.40;;;6.00;;
21543;SDS011;10933;50.754;11.508;2022-10-26T12:58:31;5.93;;;5.53;;
21543;SDS011;10933;50.754;11.508;2022-10-26T13:04:07;5.53;;;5.18;;
21543;SDS011;10933;50.754;11.508;2022-10-26T13:09:45;5.70;;;4.68;;
21543;SDS011;10933;50.754;11.508;2022-10-26T13:12:22;5.63;;;5.07;;
21543;SDS011;10933;50.754;11.508;2022-10-26T13:14:57;5.72;;;5.22;;
21543;SDS011;10933;50.754;11.508;2022-10-26T13:17:28;6.15;;;5.65;;
21543;SDS011;10933;50.754;11.508;2022-10-26T13:19:57;11.93;;;5.80;;
21543;SDS011;10933;50.754;11.508;2022-10-26T13:22:26;6.13;;;5.82;;
21543;SDS011;10933;50.754;11.508;2022-10-26T13:24:53;7.82;;;7.20;;
21543;SDS011;10933;50.754;11.508;2022-10-26T13:32:41;6.85;;;6.43;;
21543;SDS011;10933;50.754;11.508;2022-10-26T13:35:19;9.68;;;8.77;;
21543;SDS011;10933;50.754;11.508;2022-10-26T13:37:49;7.88;;;6.90;;
21543;SDS011;10933;50.754;11.508;2022-10-26T13:40:19;9.50;;;8.85;;
21543;SDS011;10933;50.754;11.508;2022-10-26T13:42:52;9.00;;;8.32;;
21543;SDS011;10933;50.754;11.508;2022-10-26T13:45:33;6.22;;;5.63;;
21543;SDS011;10933;50.754;11.508;2022-10-26T13:48:30;6.50;;;6.00;;
21543;SDS011;10933;50.754;11.508;2022-10-26T13:51:13;13.80;;;12.80;;
21543;SDS011;10933;50.754;11.508;2022-10-26T13:53:48;14.82;;;13.75;;
21543;SDS011;10933;50.754;11.508;2022-10-26T13:56:30;11.73;;;10.55;;
21543;SDS011;10933;50.754;11.508;2022-10-26T13:59:04;9.60;;;8.63;;
21543;SDS011;10933;50.754;11.508;2022-10-26T14:01:36;8.02;;;7.30;;
21543;SDS011;10933;50.754;11.508;2022-10-26T14:04:15;10.23;;;9.43;;
21543;SDS011;10933;50.754;11.508;2022-10-26T14:06:45;7.25;;;6.60;;
21543;SDS011;10933;50.754;11.508;2022-10-26T14:09:15;7.82;;;7.22;;
21543;SDS011;10933;50.754;11.508;2022-10-26T14:16:56;12.68;;;11.60;;
21543;SDS011;10933;50.754;11.508;2022-10-26T14:19:27;12.63;;;11.93;;
21543;SDS011;10933;50.754;11.508;2022-10-26T14:21:54;16.05;;;14.38;;
21543;SDS011;10933;50.754;11.508;2022-10-26T14:24:23;12.38;;;11.35;;
21543;SDS011;10933;50.754;11.508;2022-10-26T14:26:56;13.50;;;11.85;;
21543;SDS011;10933;50.754;11.508;2022-10-26T14:29:24;19.38;;;17.25;;
21543;SDS011;10933;50.754;11.508;2022-10-26T14:31:51;17.80;;;16.35;;
21543;SDS011;10933;50.754;11.508;2022-10-26T14:34:19;12.82;;;11.63;;
21543;SDS011;10933;50.754;11.508;2022-10-26T14:36:53;21.55;;;19.38;;
21543;SDS011;10933;50.754;11.508;2022-10-26T14:39:41;306.98;;;179.35;;
21543;SDS011;10933;50.754;11.508;2022-10-26T14:44:52;10.75;;;9.75;;
21543;SDS011;10933;50.754;11.508;2022-10-26T14:47:23;6.32;;;5.85;;
21543;SDS011;10933;50.754;11.508;2022-10-26T14:49:54;8.18;;;7.68;;
21543;SDS011;10933;50.754;11.508;2022-10-26T14:52:23;15.73;;;14.77;;
21543;SDS011;10933;50.754;11.508;2022-10-26T14:55:02;7.28;;;6.57;;
21543;SDS011;10933;50.754;11.508;2022-10-26T14:57:36;9.98;;;9.18;;
21543;SDS011;10933;50.754;11.508;2022-10-26T15:00:11;5.93;;;5.32;;
21543;SDS011;10933;50.754;11.508;2022-10-26T15:02:41;6.30;;;5.68;;
21543;SDS011;10933;50.754;11.508;2022-10-26T15:07:42;16.42;;;15.27;;
21543;SDS011;10933;50.754;11.508;2022-10-26T15:15:35;24.95;;;22.45;;
21543;SDS011;10933;50.754;11.508;2022-10-26T15:18:02;17.15;;;15.77;;
21543;SDS011;10933;50.754;11.508;2022-10-26T15:20:29;17.42;;;16.23;;
21543;SDS011;10933;50.754;11.508;2022-10-26T15:22:59;19.67;;;18.33;;
21543;SDS011;10933;50.754;11.508;2022-10-26T15:25:27;15.65;;;14.23;;
21543;SDS011;10933;50.754;11.508;2022-10-26T15:28:17;12.55;;;11.32;;
21543;SDS011;10933;50.754;11.508;2022-10-26T15:38:50;6.07;;;4.57;;
21543;SDS011;10933;50.754;11.508;2022-10-26T15:43:52;15.77;;;9.18;;
21543;SDS011;10933;50.754;11.508;2022-10-26T15:46:29;13.52;;;12.30;;
21543;SDS011;10933;50.754;11.508;2022-10-26T15:48:58;15.40;;;13.80;;
21543;SDS011;10933;50.754;11.508;2022-10-26T15:51:25;21.48;;;19.23;;
21543;SDS011;10933;50.754;11.508;2022-10-26T15:53:58;47.50;;;40.28;;
21543;SDS011;10933;50.754;11.508;2022-10-26T15:56:27;25.52;;;20.55;;
21543;SDS011;10933;50.754;11.508;2022-10-26T15:58:55;60.40;;;48.78;;
21543;SDS011;10933;50.754;11.508;2022-10-26T16:01:24;73.25;;;55.08;;
21543;SDS011;10933;50.754;11.508;2022-10-26T16:03:52;91.00;;;69.00;;
21543;SDS011;10933;50.754;11.508;2022-10-26T16:06:28;32.97;;;29.75;;
21543;SDS011;10933;50.754;11.508;2022-10-26T16:08:57;33.25;;;29.75;;
21543;SDS011;10933;50.754;11.508;2022-10-26T16:11:26;18.73;;;17.10;;
21543;SDS011;10933;50.754;11.508;2022-10-26T16:13:52;19.40;;;17.88;;
21543;SDS011;10933;50.754;11.508;2022-10-26T16:16:19;14.00;;;12.85;;
21543;SDS011;10933;50.754;11.508;2022-10-26T16:18:52;13.68;;;12.48;;
21543;SDS011;10933;50.754;11.508;2022-10-26T16:21:20;11.35;;;10.43;;
21543;SDS011;10933;50.754;11.508;2022-10-26T16:23:49;16.77;;;11.70;;
21543;SDS011;10933;50.754;11.508;2022-10-26T16:26:17;12.73;;;11.05;;
21543;SDS011;10933;50.754;11.508;2022-10-26T16:28:43;11.23;;;10.23;;
21543;SDS011;10933;50.754;11.508;2022-10-26T16:31:10;11.85;;;10.68;;
21543;SDS011;10933;50.754;11.508;2022-10-26T16:33:41;14.25;;;10.50;;
21543;SDS011;10933;50.754;11.508;2022-10-26T16:36:08;14.73;;;13.33;;
21543;SDS011;10933;50.754;11.508;2022-10-26T16:38:36;13.17;;;12.10;;
21543;SDS011;10933;50.754;11.508;2022-10-26T16:43:30;13.32;;;11.15;;
21543;SDS011;10933;50.754;11.508;2022-10-26T16:45:58;11.63;;;10.83;;
21543;SDS011;10933;50.754;11.508;2022-10-26T16:48:26;17.90;;;16.57;;
21543;SDS011;10933;50.754;11.508;2022-10-26T16:50:52;61.87;;;40.43;;
21543;SDS011;10933;50.754;11.508;2022-10-26T16:53:18;51.27;;;35.73;;
21543;SDS011;10933;50.754;11.508;2022-10-26T16:55:44;52.80;;;41.73;;
21543;SDS011;10933;50.754;11.508;2022-10-26T16:58:10;69.93;;;47.03;;
21543;SDS011;10933;50.754;11.508;2022-10-26T17:00:37;88.43;;;58.17;;
21543;SDS011;10933;50.754;11.508;2022-10-26T17:03:03;44.47;;;33.80;;
21543;SDS011;10933;50.754;11.508;2022-10-26T17:05:29;56.03;;;39.90;;
21543;SDS011;10933;50.754;11.508;2022-10-26T17:07:55;52.33;;;38.43;;
21543;SDS011;10933;50.754;11.508;2022-10-26T17:10:21;58.40;;;41.53;;
21543;SDS011;10933;50.754;11.508;2022-10-26T17:12:49;40.07;;;33.17;;
21543;SDS011;10933;50.754;11.508;2022-10-26T17:15:15;40.97;;;29.57;;
21543;SDS011;10933;50.754;11.508;2022-10-26T17:17:41;37.80;;;30.03;;
21543;SDS011;10933;50.754;11.508;2022-10-26T17:20:08;32.77;;;27.77;;
21543;SDS011;10933;50.754;11.508;2022-10-26T17:22:34;35.90;;;27.53;;
21543;SDS011;10933;50.754;11.508;2022-10-26T17:25:00;30.70;;;24.93;;
21543;SDS011;10933;50.754;11.508;2022-10-26T17:27:27;30.37;;;23.97;;
21543;SDS011;10933;50.754;11.508;2022-10-26T17:29:53;25.20;;;22.60;;
21543;SDS011;10933;50.754;11.508;2022-10-26T17:32:19;19.47;;;18.10;;
21543;SDS011;10933;50.754;11.508;2022-10-26T17:34:46;51.30;;;35.07;;